createdAt,value
2023-01-19T00:01:44.074Z,55.15
2023-01-19T00:04:12.360Z,54.96
2023-01-19T00:06:40.807Z,54.62
2023-01-19T00:09:09.126Z,54.80
2023-01-19T00:11:37.509Z,55.10
2023-01-19T00:14:06.203Z,55.36
2023-01-19T00:16:34.794Z,55.56
2023-01-19T00:19:03.073Z,55.41
2023-01-19T00:21:31.417Z,55.78
2023-01-19T00:23:59.698Z,55.89
2023-01-19T00:26:27.973Z,55.93
2023-01-19T00:28:56.224Z,56.02
2023-01-19T00:31:24.541Z,56.32
2023-01-19T00:33:53.489Z,56.42
2023-01-19T00:36:21.787Z,56.75
2023-01-19T00:38:50.083Z,56.85
2023-01-19T00:41:19.760Z,56.61
2023-01-19T00:43:48.058Z,56.47
2023-01-19T00:46:16.349Z,56.23
2023-01-19T00:48:45.809Z,56.45
2023-01-19T00:51:14.044Z,56.87
2023-01-19T00:53:42.300Z,57.10
2023-01-19T00:56:10.974Z,57.02
2023-01-19T00:58:39.273Z,57.16
2023-01-19T01:01:07.653Z,57.42
2023-01-19T01:03:36.005Z,57.26
2023-01-19T01:06:04.644Z,57.08
2023-01-19T01:08:33.244Z,56.76
2023-01-19T01:11:02.247Z,57.30
2023-01-19T01:13:30.909Z,57.77
2023-01-19T01:15:59.471Z,57.48
2023-01-19T01:18:27.815Z,57.70
2023-01-19T01:21:13.684Z,57.88
2023-01-19T01:23:41.969Z,58.06
2023-01-19T01:26:10.272Z,58.10
2023-01-19T01:28:38.586Z,58.62
2023-01-19T01:31:06.871Z,58.50
2023-01-19T01:33:40.703Z,58.71
2023-01-19T01:36:11.155Z,58.62
2023-01-19T01:38:41.468Z,58.47
2023-01-19T01:41:10.158Z,58.59
2023-01-19T01:43:47.712Z,58.82
2023-01-19T01:46:18.115Z,58.63
2023-01-19T01:48:52.716Z,58.40
2023-01-19T01:51:27.337Z,58.59
2023-01-19T01:54:22.929Z,58.24
2023-01-19T01:56:54.339Z,58.25
2023-01-19T01:59:41.574Z,58.77
2023-01-19T02:02:41.368Z,59.13
2023-01-19T02:05:14.305Z,58.82
2023-01-19T02:08:07.775Z,59.39
2023-01-19T02:10:55.022Z,59.32
2023-01-19T02:13:24.366Z,59.61
2023-01-19T02:15:55.726Z,59.92
2023-01-19T02:18:26.394Z,59.40
2023-01-19T02:21:22.326Z,59.41
2023-01-19T02:23:58.924Z,59.48
2023-01-19T02:26:36.399Z,59.26
2023-01-19T02:29:09.290Z,59.50
2023-01-19T02:31:39.957Z,59.79
2023-01-19T02:34:11.475Z,59.97
2023-01-19T02:37:04.369Z,59.97
2023-01-19T02:39:53.337Z,60.37
2023-01-19T02:42:28.438Z,60.59
2023-01-19T02:44:58.581Z,61.02
2023-01-19T02:47:27.023Z,61.40
2023-01-19T02:49:59.178Z,60.93
2023-01-19T02:52:28.805Z,61.22
2023-01-19T02:55:09.967Z,61.18
2023-01-19T02:57:41.509Z,61.60
2023-01-19T03:00:38.023Z,61.40
2023-01-19T03:03:38.639Z,61.56
2023-01-19T03:06:22.313Z,61.39
2023-01-19T03:09:15.731Z,61.48
2023-01-19T03:11:51.527Z,61.84
2023-01-19T03:14:26.287Z,61.98
2023-01-19T03:17:00.519Z,61.83
2023-01-19T03:19:34.293Z,61.65
2023-01-19T03:22:22.938Z,61.53
2023-01-19T03:24:54.691Z,61.69
2023-01-19T03:27:28.297Z,61.92
2023-01-19T03:30:03.025Z,61.73
2023-01-19T03:32:37.152Z,61.44
2023-01-19T03:35:12.640Z,61.73
2023-01-19T03:37:45.280Z,61.46
2023-01-19T03:40:13.799Z,61.21
2023-01-19T03:42:43.609Z,61.40
2023-01-19T03:45:14.308Z,61.49
2023-01-19T03:47:42.971Z,61.08
2023-01-19T03:50:22.949Z,61.39
2023-01-19T03:53:07.436Z,60.95
2023-01-19T03:55:37.992Z,61.16
2023-01-19T03:58:07.925Z,61.00
2023-01-19T04:00:37.430Z,61.24
2023-01-19T04:03:07.573Z,61.47
2023-01-19T04:05:35.863Z,61.53
2023-01-19T04:08:04.291Z,61.59
2023-01-19T04:10:32.857Z,61.39
2023-01-19T04:13:02.941Z,61.24
2023-01-19T04:15:32.171Z,61.27
2023-01-19T04:18:02.014Z,61.53
2023-01-19T04:20:30.918Z,61.56
2023-01-19T04:23:03.323Z,61.75
2023-01-19T04:25:31.779Z,61.65
2023-01-19T04:28:00.188Z,61.95
2023-01-19T04:30:29.191Z,61.78
2023-01-19T04:33:00.017Z,61.85
2023-01-19T04:35:28.520Z,61.52
2023-01-19T04:37:56.789Z,62.16
2023-01-19T04:40:25.416Z,62.29
2023-01-19T04:42:53.724Z,62.22
2023-01-19T04:45:22.009Z,62.46
2023-01-19T04:47:52.233Z,61.92
2023-01-19T04:50:20.661Z,61.98
2023-01-19T04:52:49.896Z,62.06
2023-01-19T04:55:19.312Z,62.13
2023-01-19T04:57:47.633Z,62.51
2023-01-19T05:00:16.656Z,62.30
2023-01-19T05:02:46.045Z,62.46
2023-01-19T05:05:14.925Z,62.67
2023-01-19T05:07:44.793Z,62.27
2023-01-19T05:10:13.538Z,62.68
2023-01-19T05:12:43.052Z,62.63
2023-01-19T05:15:12.193Z,62.72
2023-01-19T05:17:40.496Z,62.61
2023-01-19T05:20:11.232Z,62.24
2023-01-19T05:22:40.208Z,61.86
2023-01-19T05:25:12.614Z,62.54
2023-01-19T05:27:40.930Z,62.38
2023-01-19T05:30:10.053Z,61.98
2023-01-19T05:32:38.529Z,62.17
2023-01-19T05:35:07.449Z,62.45
2023-01-19T05:37:35.715Z,62.20
2023-01-19T05:40:04.339Z,61.89
2023-01-19T05:42:33.038Z,62.32
2023-01-19T05:45:01.612Z,61.88
2023-01-19T05:47:33.341Z,62.12
2023-01-19T05:50:01.632Z,61.88
2023-01-19T05:52:30.009Z,62.28
2023-01-19T05:54:58.496Z,61.78
2023-01-19T05:57:26.850Z,62.19
2023-01-19T05:59:55.180Z,61.92
2023-01-19T06:02:29.369Z,62.37
2023-01-19T06:04:57.991Z,61.97
2023-01-19T06:07:28.857Z,62.28
2023-01-19T06:09:57.715Z,62.39
2023-01-19T06:12:26.270Z,62.31
2023-01-19T06:14:54.683Z,61.81
2023-01-19T06:17:23.212Z,61.88
2023-01-19T06:19:51.519Z,62.02
2023-01-19T06:22:19.812Z,62.28
2023-01-19T06:24:48.099Z,62.67
2023-01-19T06:27:16.359Z,62.43
2023-01-19T06:29:44.645Z,62.89
2023-01-19T06:32:13.272Z,62.60
2023-01-19T06:34:44.563Z,62.93
2023-01-19T06:37:12.923Z,63.08
2023-01-19T06:39:42.003Z,63.32
2023-01-19T06:42:10.505Z,63.39
2023-01-19T06:44:38.788Z,63.46
2023-01-19T06:47:14.955Z,63.45
2023-01-19T06:49:44.672Z,63.34
2023-01-19T06:52:16.758Z,63.59
2023-01-19T06:54:46.978Z,63.66
2023-01-19T06:57:15.783Z,63.43
2023-01-19T06:59:44.096Z,63.62
2023-01-19T07:02:26.325Z,64.00
2023-01-19T07:04:57.246Z,64.19
2023-01-19T07:07:25.894Z,64.03
2023-01-19T07:09:54.681Z,64.64
2023-01-19T07:12:24.186Z,64.50
2023-01-19T07:14:53.560Z,64.80
2023-01-19T07:17:21.928Z,65.04
2023-01-19T07:19:50.218Z,65.48
2023-01-19T07:22:18.817Z,65.92
2023-01-19T07:24:47.118Z,66.07
2023-01-19T07:27:17.222Z,66.20
2023-01-19T07:29:45.596Z,66.85
2023-01-19T07:32:14.351Z,67.07
2023-01-19T07:34:42.651Z,66.97
2023-01-19T07:37:10.968Z,67.58
2023-01-19T07:39:39.305Z,68.00
2023-01-19T07:42:08.262Z,67.79
2023-01-19T07:44:36.749Z,67.99
2023-01-19T07:47:08.306Z,68.34
2023-01-19T07:49:37.298Z,68.22
2023-01-19T07:52:05.799Z,68.28
2023-01-19T07:54:34.458Z,68.38
2023-01-19T07:57:03.115Z,68.45
2023-01-19T07:59:33.138Z,68.66
2023-01-19T08:02:01.586Z,68.81
2023-01-19T08:04:30.321Z,68.91
2023-01-19T08:06:58.685Z,69.20
2023-01-19T08:09:27.087Z,69.61
2023-01-19T08:11:55.439Z,70.06
2023-01-19T08:14:23.755Z,70.31
2023-01-19T08:16:52.080Z,71.30
2023-01-19T08:19:20.439Z,70.90
2023-01-19T08:21:48.834Z,71.21
2023-01-19T08:24:23.593Z,71.42
2023-01-19T08:26:52.507Z,71.38
2023-01-19T08:29:20.850Z,72.27
2023-01-19T08:31:49.316Z,72.04
2023-01-19T08:34:17.756Z,71.91
2023-01-19T08:36:46.169Z,72.31
2023-01-19T08:39:15.551Z,72.29
2023-01-19T08:41:43.818Z,72.35
2023-01-19T08:44:12.259Z,72.32
2023-01-19T08:46:40.560Z,72.30
2023-01-19T08:49:09.632Z,72.53
2023-01-19T08:51:38.978Z,72.31
2023-01-19T08:54:07.508Z,72.33
2023-01-19T08:56:35.790Z,72.20
2023-01-19T08:59:09.952Z,72.10
2023-01-19T09:01:39.293Z,72.35
2023-01-19T09:04:07.802Z,72.19
2023-01-19T09:06:36.151Z,72.08
2023-01-19T09:09:04.774Z,72.38
2023-01-19T09:11:33.237Z,72.54
2023-01-19T09:14:01.601Z,72.74
2023-01-19T09:16:30.199Z,72.83
2023-01-19T09:18:59.376Z,73.21
2023-01-19T09:21:27.668Z,73.08
2023-01-19T09:23:56.106Z,72.91
2023-01-19T09:26:24.654Z,72.84
2023-01-19T09:28:52.955Z,72.91
2023-01-19T09:31:21.407Z,73.30
2023-01-19T09:33:49.856Z,73.28
2023-01-19T09:36:18.133Z,73.25
2023-01-19T09:38:46.930Z,73.43
2023-01-19T09:41:23.032Z,73.49
2023-01-19T09:43:59.158Z,73.45
2023-01-19T09:46:40.813Z,73.71
2023-01-19T09:49:22.815Z,73.63
2023-01-19T09:51:52.353Z,74.04
2023-01-19T09:54:37.388Z,73.78
2023-01-19T09:57:07.517Z,74.22
2023-01-19T09:59:37.503Z,74.00
2023-01-19T10:02:14.482Z,73.93
2023-01-19T10:04:45.058Z,74.12
2023-01-19T10:07:21.353Z,73.95
2023-01-19T10:10:07.348Z,73.93
2023-01-19T10:12:59.392Z,74.69
2023-01-19T10:15:48.397Z,74.22
2023-01-19T10:18:31.825Z,73.99
2023-01-19T10:21:17.645Z,74.46
2023-01-19T10:24:08.763Z,74.49
2023-01-19T10:26:53.461Z,74.69
2023-01-19T10:29:24.603Z,74.63
2023-01-19T10:31:57.765Z,74.65
2023-01-19T10:34:26.047Z,74.86
2023-01-19T10:37:03.863Z,74.90
2023-01-19T10:39:35.780Z,74.91
2023-01-19T10:42:07.520Z,74.69
2023-01-19T10:44:38.473Z,74.83
2023-01-19T10:47:15.893Z,74.65
2023-01-19T10:49:44.689Z,74.74
2023-01-19T10:52:45.586Z,74.72
2023-01-19T10:55:29.346Z,75.02
2023-01-19T10:57:59.104Z,75.09
2023-01-19T11:00:38.654Z,75.03
2023-01-19T11:03:28.715Z,74.94
2023-01-19T11:06:17.770Z,75.28
2023-01-19T11:08:47.757Z,74.91
2023-01-19T11:11:16.020Z,75.06
2023-01-19T11:13:45.019Z,75.03
2023-01-19T11:16:35.599Z,75.29
2023-01-19T11:19:04.453Z,75.11
2023-01-19T11:21:34.023Z,74.93
2023-01-19T11:24:06.314Z,75.18
2023-01-19T11:26:49.886Z,75.19
2023-01-19T11:29:28.224Z,75.25
2023-01-19T11:32:00.280Z,75.53
2023-01-19T11:34:38.828Z,75.34
2023-01-19T11:37:17.436Z,75.33
2023-01-19T11:39:51.142Z,75.32
2023-01-19T11:42:20.968Z,75.47
2023-01-19T11:45:13.609Z,75.41
2023-01-19T11:47:47.982Z,75.40
2023-01-19T11:50:34.346Z,75.46
2023-01-19T11:53:16.048Z,75.71
2023-01-19T11:55:53.518Z,75.47
2023-01-19T11:58:22.548Z,75.79
2023-01-19T12:01:03.658Z,75.63
2023-01-19T12:03:34.405Z,75.57
2023-01-19T12:06:15.194Z,75.65
2023-01-19T12:08:59.457Z,75.50
2023-01-19T12:11:40.956Z,75.34
2023-01-19T12:14:24.787Z,75.38
2023-01-19T12:16:56.349Z,75.48
2023-01-19T12:19:41.958Z,75.45
2023-01-19T12:22:17.704Z,75.07
2023-01-19T12:24:58.069Z,75.42
2023-01-19T12:27:47.149Z,75.68
2023-01-19T12:30:30.332Z,75.69
2023-01-19T12:33:37.959Z,75.64
2023-01-19T12:36:18.126Z,75.39
2023-01-19T12:38:58.438Z,75.58
2023-01-19T12:41:29.481Z,75.68
2023-01-19T12:44:13.177Z,75.22
2023-01-19T12:46:58.930Z,75.18
2023-01-19T12:49:43.923Z,75.39
2023-01-19T12:52:24.140Z,75.67
2023-01-19T12:55:00.684Z,75.46
2023-01-19T12:57:37.794Z,75.38
2023-01-19T13:00:23.395Z,75.63
2023-01-19T13:02:57.816Z,75.37
2023-01-19T13:05:33.274Z,75.55
2023-01-19T13:08:07.528Z,75.27
2023-01-19T13:11:07.231Z,75.86
2023-01-19T13:13:40.919Z,75.73
2023-01-19T13:16:25.832Z,75.58
2023-01-19T13:19:09.554Z,75.57
2023-01-19T13:21:46.016Z,75.85
2023-01-19T13:24:23.152Z,75.52
2023-01-19T13:26:51.365Z,75.58
2023-01-19T13:29:41.723Z,75.66
2023-01-19T13:32:20.225Z,75.92
2023-01-19T13:35:02.650Z,75.99
2023-01-19T13:37:42.573Z,76.10
2023-01-19T13:40:21.671Z,75.66
2023-01-19T13:42:52.139Z,75.66
2023-01-19T13:45:34.587Z,76.02
2023-01-19T13:48:07.741Z,75.89
2023-01-19T13:50:43.642Z,76.19
2023-01-19T13:53:25.236Z,75.75
2023-01-19T13:56:22.782Z,75.64
2023-01-19T13:59:14.983Z,75.99
2023-01-19T14:01:45.975Z,75.79
2023-01-19T14:04:34.625Z,75.70
2023-01-19T14:07:14.648Z,76.00
2023-01-19T14:09:42.954Z,75.93
2023-01-19T14:12:17.032Z,75.75
2023-01-19T14:14:48.503Z,76.30
2023-01-19T14:17:28.050Z,75.82
2023-01-19T14:19:58.719Z,75.77
2023-01-19T14:22:44.728Z,76.37
2023-01-19T14:25:33.077Z,76.14
2023-01-19T14:28:29.453Z,76.01
2023-01-19T14:31:04.395Z,76.01
2023-01-19T14:33:38.113Z,76.17
2023-01-19T14:36:17.591Z,76.28
2023-01-19T14:38:48.889Z,76.07
2023-01-19T14:41:25.758Z,76.29
2023-01-19T14:43:56.927Z,76.35
2023-01-19T14:46:25.934Z,76.29
2023-01-19T14:48:59.552Z,76.00
2023-01-19T14:51:29.015Z,75.92
2023-01-19T14:54:00.822Z,75.70
2023-01-19T14:56:30.549Z,76.23
2023-01-19T14:59:00.930Z,75.84
2023-01-19T15:01:30.056Z,76.02
2023-01-19T15:03:59.414Z,76.05
2023-01-19T15:06:28.009Z,76.11
2023-01-19T15:08:56.880Z,76.02
2023-01-19T15:11:31.230Z,76.13
2023-01-19T15:14:00.178Z,76.32
2023-01-19T15:16:30.822Z,76.16
2023-01-19T15:18:59.120Z,76.32
2023-01-19T15:21:27.495Z,76.13
2023-01-19T15:23:56.179Z,76.11
2023-01-19T15:26:26.469Z,76.06
2023-01-19T15:28:56.776Z,76.13
2023-01-19T15:31:27.576Z,76.19
2023-01-19T15:33:55.935Z,76.35
2023-01-19T15:36:26.548Z,76.46
2023-01-19T15:38:54.862Z,76.18
2023-01-19T15:41:25.005Z,76.52
2023-01-19T15:43:53.999Z,76.38
2023-01-19T15:46:23.808Z,76.50
2023-01-19T15:48:53.122Z,76.74
2023-01-19T15:51:27.087Z,76.85
2023-01-19T15:53:56.600Z,76.80
2023-01-19T15:56:32.667Z,76.37
2023-01-19T15:59:01.012Z,75.94
2023-01-19T16:01:34.767Z,76.23
2023-01-19T16:04:06.566Z,75.98
2023-01-19T16:06:35.271Z,76.52
2023-01-19T16:09:04.829Z,76.65
2023-01-19T16:11:34.903Z,76.48
2023-01-19T16:14:03.619Z,76.21
2023-01-19T16:16:32.026Z,76.34
2023-01-19T16:19:00.344Z,76.33
2023-01-19T16:21:28.695Z,76.70
2023-01-19T16:23:57.086Z,76.39
2023-01-19T16:26:30.092Z,76.65
2023-01-19T16:29:10.834Z,76.53
2023-01-19T16:31:44.180Z,76.28
2023-01-19T16:34:12.965Z,76.06
2023-01-19T16:36:42.797Z,76.57
2023-01-19T16:39:16.484Z,76.01
2023-01-19T16:41:46.271Z,76.09
2023-01-19T16:44:16.187Z,76.30
2023-01-19T16:46:47.296Z,75.92
2023-01-19T16:49:22.081Z,75.99
2023-01-19T16:51:50.292Z,75.92
2023-01-19T16:54:22.191Z,75.91
2023-01-19T16:56:51.033Z,75.68
2023-01-19T16:59:20.424Z,75.68
2023-01-19T17:01:51.366Z,75.70
2023-01-19T17:04:21.504Z,75.82
2023-01-19T17:06:50.798Z,75.55
2023-01-19T17:09:19.553Z,75.43
2023-01-19T17:11:48.467Z,75.57
2023-01-19T17:14:21.268Z,75.32
2023-01-19T17:16:49.973Z,75.41
2023-01-19T17:19:21.002Z,75.71
2023-01-19T17:21:50.568Z,75.42
2023-01-19T17:24:19.637Z,75.11
2023-01-19T17:26:49.509Z,75.18
2023-01-19T17:29:18.433Z,75.29
2023-01-19T17:31:47.645Z,74.77
2023-01-19T17:34:15.981Z,74.76
2023-01-19T17:36:44.642Z,74.74
2023-01-19T17:39:15.557Z,74.52
2023-01-19T17:41:45.476Z,74.25
2023-01-19T17:44:13.835Z,73.58
2023-01-19T17:46:42.255Z,73.01
2023-01-19T17:49:11.912Z,72.59
2023-01-19T17:51:40.233Z,72.27
2023-01-19T17:54:08.584Z,71.14
2023-01-19T17:56:39.391Z,71.26
2023-01-19T17:59:08.788Z,71.14
2023-01-19T18:01:40.700Z,71.53
2023-01-19T18:04:10.448Z,71.30
2023-01-19T18:06:40.117Z,71.00
2023-01-19T18:09:08.823Z,70.41
2023-01-19T18:11:37.274Z,70.51
2023-01-19T18:14:06.901Z,69.70
2023-01-19T18:16:35.715Z,69.70
2023-01-19T18:19:04.184Z,69.35
2023-01-19T18:21:32.408Z,69.55
2023-01-19T18:24:05.903Z,69.61
2023-01-19T18:26:35.679Z,69.37
2023-01-19T18:29:04.149Z,69.19
2023-01-19T18:31:32.693Z,68.82
2023-01-19T18:34:01.093Z,68.67
2023-01-19T18:36:29.509Z,68.55
2023-01-19T18:38:57.803Z,68.02
2023-01-19T18:41:26.140Z,67.74
2023-01-19T18:43:59.755Z,67.61
2023-01-19T18:46:28.354Z,67.02
2023-01-19T18:48:56.836Z,67.41
2023-01-19T18:51:25.169Z,67.42
2023-01-19T18:53:53.557Z,67.57
2023-01-19T18:56:21.816Z,67.43
2023-01-19T18:58:50.169Z,67.51
2023-01-19T19:01:29.204Z,66.19
2023-01-19T19:03:59.517Z,66.28
2023-01-19T19:06:28.348Z,66.20
2023-01-19T19:08:58.843Z,65.76
2023-01-19T19:11:28.774Z,64.71
2023-01-19T19:14:02.327Z,65.98
2023-01-19T19:16:35.128Z,65.77
2023-01-19T19:19:04.234Z,65.24
2023-01-19T19:21:32.609Z,65.90
2023-01-19T19:24:00.955Z,66.26
2023-01-19T19:26:29.972Z,65.72
2023-01-19T19:28:58.478Z,65.97
2023-01-19T19:31:28.371Z,65.71
2023-01-19T19:33:58.192Z,65.93
2023-01-19T19:36:28.480Z,65.44
2023-01-19T19:38:57.154Z,64.18
2023-01-19T19:41:30.439Z,64.60
2023-01-19T19:43:59.377Z,64.98
2023-01-19T19:46:28.815Z,64.47
2023-01-19T19:48:57.212Z,64.12
2023-01-19T19:51:40.990Z,64.68
2023-01-19T19:54:09.963Z,64.16
2023-01-19T19:56:38.228Z,64.65
2023-01-19T19:59:07.348Z,64.19
2023-01-19T20:01:35.926Z,64.72
2023-01-19T20:04:10.520Z,63.99
2023-01-19T20:06:42.525Z,63.42
2023-01-19T20:09:13.712Z,63.35
2023-01-19T20:11:43.172Z,63.62
2023-01-19T20:14:13.475Z,63.59
2023-01-19T20:16:41.773Z,63.78
2023-01-19T20:19:10.224Z,63.44
2023-01-19T20:21:41.478Z,62.61
2023-01-19T20:24:15.492Z,62.66
2023-01-19T20:26:51.187Z,63.32
2023-01-19T20:29:21.111Z,62.73
2023-01-19T20:31:52.992Z,63.06
2023-01-19T20:34:25.420Z,62.87
2023-01-19T20:36:54.722Z,62.15
2023-01-19T20:39:24.950Z,62.30
2023-01-19T20:41:53.484Z,62.14
2023-01-19T20:44:24.964Z,62.58
2023-01-19T20:46:55.369Z,62.26
2023-01-19T20:49:24.207Z,61.64
2023-01-19T20:51:52.867Z,62.10
2023-01-19T20:54:25.263Z,61.59
2023-01-19T20:56:53.772Z,61.75
2023-01-19T20:59:22.143Z,61.68
2023-01-19T21:01:50.882Z,61.02
2023-01-19T21:04:19.342Z,61.54
2023-01-19T21:06:47.674Z,61.19
2023-01-19T21:09:16.014Z,61.10
2023-01-19T21:11:44.360Z,61.00
2023-01-19T21:14:12.718Z,61.23
2023-01-19T21:16:43.345Z,60.27
2023-01-19T21:19:12.814Z,60.51
2023-01-19T21:21:41.184Z,60.31
2023-01-19T21:24:11.852Z,60.08
2023-01-19T21:26:40.363Z,60.65
2023-01-19T21:29:14.027Z,60.72
2023-01-19T21:31:42.911Z,59.12
2023-01-19T21:34:11.416Z,59.84
2023-01-19T21:36:39.804Z,60.00
2023-01-19T21:39:09.045Z,59.42
2023-01-19T21:41:38.906Z,59.77
2023-01-19T21:44:07.313Z,59.86
2023-01-19T21:46:36.435Z,60.32
2023-01-19T21:49:07.593Z,59.72
2023-01-19T21:51:37.942Z,59.50
2023-01-19T21:54:08.069Z,59.10
2023-01-19T21:56:38.816Z,59.38
2023-01-19T21:59:07.543Z,59.95
2023-01-19T22:01:36.422Z,59.55
2023-01-19T22:04:05.036Z,59.61
2023-01-19T22:06:33.326Z,59.02
2023-01-19T22:09:01.838Z,58.30
2023-01-19T22:11:30.995Z,59.11
2023-01-19T22:14:02.058Z,59.20
2023-01-19T22:16:31.405Z,59.13
2023-01-19T22:19:03.082Z,58.32
2023-01-19T22:21:34.132Z,58.05
2023-01-19T22:24:04.201Z,57.79
2023-01-19T22:26:34.988Z,57.91
2023-01-19T22:29:03.988Z,57.79
2023-01-19T22:31:32.467Z,57.50
2023-01-19T22:34:00.844Z,58.15
2023-01-19T22:36:32.547Z,57.79
2023-01-19T22:39:09.705Z,57.68
2023-01-19T22:41:43.374Z,57.73
2023-01-19T22:44:17.653Z,58.04
2023-01-19T22:46:46.293Z,58.23
2023-01-19T22:49:17.149Z,56.96
2023-01-19T22:51:46.276Z,57.33
2023-01-19T22:54:14.575Z,58.51
2023-01-19T22:56:43.776Z,58.42
2023-01-19T22:59:12.037Z,58.79
2023-01-19T23:01:44.776Z,58.69
2023-01-19T23:04:17.029Z,58.52
2023-01-19T23:06:50.197Z,58.56
2023-01-19T23:09:18.842Z,58.27
2023-01-19T23:11:52.173Z,58.75
2023-01-19T23:14:22.909Z,58.66
2023-01-19T23:16:51.239Z,58.61
2023-01-19T23:19:20.306Z,58.79
2023-01-19T23:21:52.856Z,58.90
2023-01-19T23:24:21.274Z,58.65
2023-01-19T23:26:51.493Z,59.15
2023-01-19T23:29:20.573Z,58.61
2023-01-19T23:31:50.443Z,58.71
2023-01-19T23:34:18.800Z,58.83
2023-01-19T23:36:47.229Z,58.68
2023-01-19T23:39:21.691Z,58.82
2023-01-19T23:41:50.757Z,58.86
2023-01-19T23:44:19.450Z,58.80
2023-01-19T23:46:48.011Z,58.57
2023-01-19T23:49:16.388Z,58.49
2023-01-19T23:51:44.697Z,58.30
2023-01-19T23:54:13.161Z,58.60
2023-01-19T23:56:43.371Z,58.44
2023-01-19T23:59:14.207Z,58.48
